Pagrindinis puslapis
METAR-TAF:

METAR-TAF

Oro uostai :

Valjeduparas, Kolumbija

platuma: 10-26N, ilguma: 073-15W, Aukštis: 138 m

Dabartinis oras

Ataskaita buvo paskelbta 3 valandos ir 18 minutes, ne 20:00 UTC
Vėjas 6 kt iš Pietryčių
Temperatūra 36°C
Drėgmė 47%
Slėgis 1011 hPa
Matomumas 10 km arba daugiau
Mažai debesys ne aukštis 2000 ft, aukštai iškilę kamuoliniai debesys.
Liūtis kaimynystėje

METAR: SKVP 052000Z 14006KT 9999 VCSH FEW020TCU 36/23 A2985 RMK TCU VCSH/E/SE

Laikas: 18:18 (23:18 UTC)


TAF: trūkstamas

Orai ataskaitas ir orų prognozės (METAR, TAF).

turimą stotys yra geltonos ir raudonos taškus žemėlapyje.

Perkelti pele per norėdami pamatyti stoties vardą.

Tada spustelėkite, norėdami matyti oro stebėjimo ir prognozės.

Norėdami pakeisti žemėlapį: spustelėkite ant žalios mygtukų su juodo kryžiaus žemyn,; žalią mygtuką su brūkšneliu, jei norite nutolinti; arba žalių rodyklių gretimoms žemėlapius.


METAR-TAF: